createdAt,value
2019-03-29T00:00:11.949Z,97983.78
2019-03-29T00:02:43.290Z,97989.17
2019-03-29T00:05:14.829Z,97988.11
2019-03-29T00:07:46.239Z,97989.22
2019-03-29T00:10:17.513Z,97986.38
2019-03-29T00:12:49.064Z,97992.11
2019-03-29T00:15:20.345Z,97980.37
2019-03-29T00:17:51.955Z,97983.69
2019-03-29T00:20:23.573Z,97987.41
2019-03-29T00:22:55.063Z,97988.95
2019-03-29T00:25:26.861Z,97981.28
2019-03-29T00:27:58.344Z,97977.96
2019-03-29T00:30:29.526Z,97980.45
2019-03-29T00:33:00.913Z,97976.66
2019-03-29T00:35:32.422Z,97972.15
2019-03-29T00:38:03.907Z,97971.72
2019-03-29T00:40:35.569Z,97968.43
2019-03-29T00:43:07.026Z,97959.18
2019-03-29T00:45:38.494Z,97958.39
2019-03-29T00:48:10.153Z,97961.87
2019-03-29T00:50:41.783Z,97955.59
2019-03-29T00:53:13.372Z,97955.77
2019-03-29T00:55:44.666Z,97952.61
2019-03-29T00:58:16.060Z,97953.20
2019-03-29T01:00:47.488Z,97947.98
2019-03-29T01:03:18.914Z,97940.27
2019-03-29T01:05:50.333Z,97943.98
2019-03-29T01:08:21.884Z,97942.56
2019-03-29T01:10:53.265Z,97945.64
2019-03-29T01:13:24.924Z,97944.13
2019-03-29T01:15:56.479Z,97943.54
2019-03-29T01:18:27.933Z,97940.86
2019-03-29T01:20:59.296Z,97933.78
2019-03-29T01:23:30.860Z,97933.34
2019-03-29T01:26:02.419Z,97935.72
2019-03-29T01:28:33.988Z,97930.53
2019-03-29T01:31:05.440Z,97936.45
2019-03-29T01:33:36.792Z,97929.78
2019-03-29T01:36:08.271Z,97922.70
2019-03-29T01:38:39.627Z,97925.31
2019-03-29T01:41:10.937Z,97924.63
2019-03-29T01:43:42.421Z,97927.39
2019-03-29T01:46:13.886Z,97928.25
2019-03-29T01:48:45.289Z,97927.53
2019-03-29T01:51:16.691Z,97924.48
2019-03-29T01:53:48.111Z,97923.27
2019-03-29T01:56:19.545Z,97919.36
2019-03-29T01:58:51.005Z,97911.54
2019-03-29T02:01:22.376Z,97916.75
2019-03-29T02:03:53.869Z,97919.77
2019-03-29T02:06:25.192Z,97922.98
2019-03-29T02:08:56.820Z,97922.88
2019-03-29T02:11:28.352Z,97916.95
2019-03-29T02:13:59.628Z,97914.79
2019-03-29T02:16:30.996Z,97918.25
2019-03-29T02:19:02.213Z,97916.50
2019-03-29T02:21:33.543Z,97912.61
2019-03-29T02:24:04.968Z,97909.17
2019-03-29T02:26:36.139Z,97915.33
2019-03-29T02:29:07.370Z,97914.84
2019-03-29T02:31:42.075Z,97915.19
2019-03-29T02:34:11.546Z,97918.02
2019-03-29T02:36:42.824Z,97919.33
2019-03-29T02:39:14.172Z,97921.84
2019-03-29T02:41:46.601Z,97921.04
2019-03-29T02:44:18.171Z,97924.70
2019-03-29T02:46:49.443Z,97917.12
2019-03-29T02:49:20.754Z,97922.44
2019-03-29T02:51:51.981Z,97912.27
2019-03-29T02:54:23.233Z,97910.84
2019-03-29T02:56:54.607Z,97914.16
2019-03-29T02:59:25.972Z,97913.09
2019-03-29T03:01:57.314Z,97916.28
2019-03-29T03:04:28.654Z,97917.72
2019-03-29T03:06:59.957Z,97915.38
2019-03-29T03:09:31.252Z,97923.28
2019-03-29T03:12:02.423Z,97917.16
2019-03-29T03:14:33.708Z,97915.51
2019-03-29T03:17:05.009Z,97921.30
2019-03-29T03:19:36.316Z,97923.68
2019-03-29T03:22:07.633Z,97925.08
2019-03-29T03:24:38.875Z,97926.88
2019-03-29T03:27:10.177Z,97929.02
2019-03-29T03:29:41.561Z,97924.85
2019-03-29T03:32:12.768Z,97923.32
2019-03-29T03:34:44.097Z,97922.70
2019-03-29T03:37:15.400Z,97919.61
2019-03-29T03:39:46.641Z,97919.75
2019-03-29T03:42:17.896Z,97920.45
2019-03-29T03:44:49.176Z,97914.39
2019-03-29T03:47:20.488Z,97911.45
2019-03-29T03:49:51.775Z,97910.88
2019-03-29T03:52:23.036Z,97912.09
2019-03-29T03:54:54.278Z,97910.09
2019-03-29T03:57:26.540Z,97907.70
2019-03-29T03:59:58.504Z,97914.00
2019-03-29T04:02:29.650Z,97919.30
2019-03-29T04:05:00.901Z,97912.56
2019-03-29T04:07:32.135Z,97910.44
2019-03-29T04:10:03.474Z,97911.76
2019-03-29T04:12:34.643Z,97908.08
2019-03-29T04:15:06.400Z,97909.27
2019-03-29T04:17:37.684Z,97911.27
2019-03-29T04:20:09.164Z,97915.17
2019-03-29T04:22:40.440Z,97913.77
2019-03-29T04:25:11.703Z,97910.91
2019-03-29T04:27:43.000Z,97909.75
2019-03-29T04:30:14.983Z,97908.80
2019-03-29T04:32:46.254Z,97905.95
2019-03-29T04:35:17.560Z,97906.67
2019-03-29T04:37:48.939Z,97905.23
2019-03-29T04:40:20.233Z,97900.14
2019-03-29T04:42:51.454Z,97900.03
2019-03-29T04:45:22.790Z,97902.27
2019-03-29T04:47:54.042Z,97893.64
2019-03-29T04:50:25.235Z,97887.03
2019-03-29T04:52:56.537Z,97881.72
2019-03-29T04:55:27.806Z,97881.58
2019-03-29T04:57:59.069Z,97891.77
2019-03-29T05:00:30.412Z,97887.86
2019-03-29T05:03:01.677Z,97888.55
2019-03-29T05:05:32.944Z,97890.32
2019-03-29T05:08:04.220Z,97892.02
2019-03-29T05:10:35.464Z,97886.81
2019-03-29T05:13:06.712Z,97884.78
2019-03-29T05:15:37.893Z,97883.59
2019-03-29T05:18:09.144Z,97888.80
2019-03-29T05:20:40.351Z,97891.04
2019-03-29T05:23:11.664Z,97895.77
2019-03-29T05:25:42.859Z,97895.91
2019-03-29T05:28:13.958Z,97903.34
2019-03-29T05:30:45.273Z,97897.31
2019-03-29T05:33:16.642Z,97899.56
2019-03-29T05:35:47.856Z,97905.84
2019-03-29T05:38:19.119Z,97907.84
2019-03-29T05:40:50.307Z,97911.27
2019-03-29T05:43:21.594Z,97908.76
2019-03-29T05:45:52.806Z,97908.89
2019-03-29T05:48:24.013Z,97902.29
2019-03-29T05:50:55.281Z,97897.77
2019-03-29T05:53:26.683Z,97899.30
2019-03-29T05:55:58.013Z,97896.91
2019-03-29T05:58:29.289Z,97898.31
2019-03-29T06:01:00.515Z,97898.17
2019-03-29T06:03:31.686Z,97901.95
2019-03-29T06:06:02.965Z,97897.76
2019-03-29T06:08:34.134Z,97902.59
2019-03-29T06:11:05.385Z,97897.52
2019-03-29T06:13:36.642Z,97909.02
2019-03-29T06:16:07.991Z,97904.70
2019-03-29T06:18:39.153Z,97909.91
2019-03-29T06:21:10.379Z,97909.73
2019-03-29T06:23:41.577Z,97909.50
2019-03-29T06:26:12.808Z,97913.91
2019-03-29T06:28:44.114Z,97915.53
2019-03-29T06:31:15.274Z,97916.95
2019-03-29T06:33:46.463Z,97912.05
2019-03-29T06:36:18.522Z,97910.19
2019-03-29T06:38:50.816Z,97908.73
2019-03-29T06:41:22.062Z,97912.72
2019-03-29T06:43:53.336Z,97905.11
2019-03-29T06:46:24.623Z,97906.05
2019-03-29T06:48:55.924Z,97907.67
2019-03-29T06:51:27.208Z,97907.75
2019-03-29T06:53:58.402Z,97907.09
2019-03-29T06:56:29.743Z,97910.99
2019-03-29T06:59:00.874Z,97903.36
2019-03-29T07:01:33.982Z,97904.73
2019-03-29T07:04:05.284Z,97901.86
2019-03-29T07:06:36.578Z,97898.91
2019-03-29T07:09:08.517Z,97893.36
2019-03-29T07:11:39.874Z,97899.75
2019-03-29T07:14:11.273Z,97896.78
2019-03-29T07:16:42.564Z,97889.83
2019-03-29T07:19:13.709Z,97891.71
2019-03-29T07:21:44.973Z,97893.65
2019-03-29T07:24:16.155Z,97892.84
2019-03-29T07:26:47.410Z,97893.96
2019-03-29T07:29:18.498Z,97897.30
2019-03-29T07:31:52.994Z,97894.33
2019-03-29T07:34:22.830Z,97879.56
2019-03-29T07:36:53.936Z,97882.18
2019-03-29T07:39:25.214Z,97888.06
2019-03-29T07:41:56.535Z,97881.97
2019-03-29T07:44:27.784Z,97884.37
2019-03-29T07:46:59.127Z,97887.58
2019-03-29T07:49:30.463Z,97881.55
2019-03-29T07:52:01.760Z,97882.26
2019-03-29T07:54:33.009Z,97882.03
2019-03-29T07:57:04.265Z,97878.09
2019-03-29T07:59:35.558Z,97876.51
2019-03-29T08:02:06.868Z,97880.33
2019-03-29T08:04:38.168Z,97882.53
2019-03-29T08:07:09.453Z,97882.00
2019-03-29T08:09:40.680Z,97879.98
2019-03-29T08:12:11.952Z,97877.70
2019-03-29T08:14:43.278Z,97875.53
2019-03-29T08:17:14.533Z,97876.77
2019-03-29T08:19:46.242Z,97875.13
2019-03-29T08:22:17.531Z,97874.14
2019-03-29T08:24:48.750Z,97876.41
2019-03-29T08:27:20.044Z,97877.44
2019-03-29T08:29:51.375Z,97876.80
2019-03-29T08:32:22.709Z,97871.88
2019-03-29T08:34:53.996Z,97877.45
2019-03-29T08:37:25.177Z,97878.44
2019-03-29T08:39:56.730Z,97874.84
2019-03-29T08:42:28.082Z,97878.12
2019-03-29T08:44:59.318Z,97884.55
2019-03-29T08:47:30.581Z,97879.56
2019-03-29T08:50:01.862Z,97864.83
2019-03-29T08:52:33.082Z,97872.02
2019-03-29T08:55:04.909Z,97870.01
2019-03-29T08:57:36.208Z,97866.03
2019-03-29T09:00:08.846Z,97871.92
2019-03-29T09:02:40.126Z,97867.47
2019-03-29T09:05:11.495Z,97876.39
2019-03-29T09:07:45.114Z,97870.12
2019-03-29T09:10:26.007Z,97872.44
2019-03-29T09:12:57.251Z,97865.02
2019-03-29T09:15:28.609Z,97866.39
2019-03-29T09:18:00.287Z,97854.91
2019-03-29T09:20:34.275Z,97855.04
2019-03-29T09:23:04.573Z,97856.25
2019-03-29T09:25:36.233Z,97855.64
2019-03-29T09:28:07.484Z,97852.94
2019-03-29T09:30:38.765Z,97845.14
2019-03-29T09:33:10.104Z,97847.70
2019-03-29T09:35:42.973Z,97850.93
2019-03-29T09:38:14.294Z,97846.59
2019-03-29T09:40:57.440Z,97845.41
2019-03-29T09:43:18.654Z,97831.76
2019-03-29T09:45:49.891Z,97830.88
2019-03-29T09:48:21.849Z,97836.87
2019-03-29T09:50:53.091Z,97827.48
2019-03-29T09:53:24.954Z,97823.55
2019-03-29T09:55:56.195Z,97827.67
2019-03-29T09:58:27.524Z,97831.45
2019-03-29T10:00:58.782Z,97830.55
2019-03-29T10:03:30.151Z,97842.98
2019-03-29T10:06:02.117Z,97826.23
2019-03-29T10:08:33.453Z,97836.69
2019-03-29T10:11:04.754Z,97838.78
2019-03-29T10:13:35.967Z,97823.46
2019-03-29T10:16:07.216Z,97822.56
2019-03-29T10:18:38.474Z,97812.97
2019-03-29T10:21:09.760Z,97810.39
2019-03-29T10:23:41.042Z,97808.98
2019-03-29T10:26:12.306Z,97817.99
2019-03-29T10:28:43.552Z,97801.31
2019-03-29T10:31:14.810Z,97803.64
2019-03-29T10:33:48.863Z,97806.63
2019-03-29T10:36:18.854Z,97803.87
2019-03-29T10:38:50.113Z,97795.08
2019-03-29T10:41:22.556Z,97797.67
2019-03-29T10:43:54.232Z,97794.88
2019-03-29T10:46:26.023Z,97796.58
2019-03-29T10:48:57.545Z,97796.21
2019-03-29T10:51:28.802Z,97792.69
2019-03-29T10:54:00.065Z,97789.55
2019-03-29T10:56:34.300Z,97790.68
2019-03-29T10:59:04.333Z,97786.61
2019-03-29T11:01:35.445Z,97795.11
2019-03-29T11:04:06.743Z,97789.22
2019-03-29T11:06:37.999Z,97794.58
2019-03-29T11:09:09.974Z,97782.63
2019-03-29T11:11:41.123Z,97783.53
2019-03-29T11:14:12.385Z,97788.21
2019-03-29T11:16:43.786Z,97778.56
2019-03-29T11:19:15.015Z,97772.45
2019-03-29T11:21:46.309Z,97780.56
2019-03-29T11:24:17.742Z,97776.42
2019-03-29T11:26:49.064Z,97766.92
2019-03-29T11:29:20.344Z,97771.20
2019-03-29T11:31:52.933Z,97774.72
2019-03-29T11:34:24.961Z,97775.69
2019-03-29T11:36:56.147Z,97773.48
2019-03-29T11:39:27.684Z,97772.89
2019-03-29T11:41:59.156Z,97774.87
2019-03-29T11:44:30.530Z,97770.42
2019-03-29T11:47:01.813Z,97760.14
2019-03-29T11:49:33.335Z,97765.95
2019-03-29T11:52:04.721Z,97763.96
2019-03-29T11:54:36.026Z,97765.00
2019-03-29T11:57:07.381Z,97746.44
2019-03-29T11:59:40.307Z,97754.83
2019-03-29T12:02:11.652Z,97753.13
2019-03-29T12:04:42.894Z,97755.97
2019-03-29T12:07:14.225Z,97749.84
2019-03-29T12:09:45.491Z,97753.20
2019-03-29T12:12:17.514Z,97749.27
2019-03-29T12:14:48.874Z,97747.24
2019-03-29T12:17:20.095Z,97745.36
2019-03-29T12:19:51.436Z,97739.59
2019-03-29T12:22:22.721Z,97736.45
2019-03-29T12:24:53.838Z,97731.72
2019-03-29T12:27:25.046Z,97730.09
2019-03-29T12:29:56.227Z,97736.41
2019-03-29T12:32:27.484Z,97733.30
2019-03-29T12:34:58.807Z,97732.30
2019-03-29T12:37:30.093Z,97720.66
2019-03-29T12:40:01.416Z,97718.09
2019-03-29T12:42:32.520Z,97723.75
2019-03-29T12:45:03.678Z,97724.92
2019-03-29T12:47:35.006Z,97718.72
2019-03-29T12:50:06.360Z,97719.66
2019-03-29T12:52:37.635Z,97707.53
2019-03-29T12:55:08.868Z,97716.63
2019-03-29T12:57:40.089Z,97715.20
2019-03-29T13:00:13.251Z,97713.53
2019-03-29T13:02:44.567Z,97706.70
2019-03-29T13:05:15.786Z,97706.20
2019-03-29T13:07:53.158Z,97700.88
2019-03-29T13:10:23.383Z,97704.14
2019-03-29T13:12:54.649Z,97699.27
2019-03-29T13:15:26.061Z,97693.49
2019-03-29T13:17:57.306Z,97684.97
2019-03-29T13:20:28.501Z,97694.17
2019-03-29T13:22:59.754Z,97675.75
2019-03-29T13:25:30.916Z,97682.41
2019-03-29T13:28:02.201Z,97676.55
2019-03-29T13:30:33.453Z,97683.20
2019-03-29T13:33:04.799Z,97672.08
2019-03-29T13:35:35.993Z,97664.39
2019-03-29T13:38:07.239Z,97667.19
2019-03-29T13:40:39.778Z,97669.52
2019-03-29T13:43:10.987Z,97658.48
2019-03-29T13:45:42.272Z,97664.28
2019-03-29T13:48:13.586Z,97658.12
2019-03-29T13:50:44.861Z,97656.10
2019-03-29T13:53:16.090Z,97649.12
2019-03-29T13:55:47.276Z,97650.36
2019-03-29T13:58:18.552Z,97639.89
2019-03-29T14:00:49.744Z,97639.59
2019-03-29T14:03:21.008Z,97632.69
2019-03-29T14:05:52.218Z,97635.99
2019-03-29T14:08:23.523Z,97639.58
2019-03-29T14:10:54.883Z,97621.84
2019-03-29T14:13:26.144Z,97631.17
2019-03-29T14:15:57.433Z,97632.28
2019-03-29T14:18:28.703Z,97626.71
2019-03-29T14:21:00.022Z,97626.84
2019-03-29T14:23:31.359Z,97626.66
2019-03-29T14:26:02.531Z,97622.08
2019-03-29T14:28:33.658Z,97615.86
2019-03-29T14:31:04.949Z,97608.63
2019-03-29T14:33:36.241Z,97609.74
2019-03-29T14:36:07.498Z,97610.38
2019-03-29T14:38:38.800Z,97605.45
2019-03-29T14:41:10.027Z,97596.38
2019-03-29T14:43:41.337Z,97599.39
2019-03-29T14:46:12.567Z,97591.58
2019-03-29T14:48:43.836Z,97596.48
2019-03-29T14:51:15.046Z,97589.05
2019-03-29T14:53:46.192Z,97586.92
2019-03-29T14:56:17.379Z,97583.02
2019-03-29T14:58:48.630Z,97582.02
2019-03-29T15:01:19.888Z,97580.08
2019-03-29T15:03:51.143Z,97580.64
2019-03-29T15:06:22.262Z,97572.25
2019-03-29T15:08:53.648Z,97576.26
2019-03-29T15:11:24.952Z,97574.22
2019-03-29T15:13:56.166Z,97569.92
2019-03-29T15:16:27.427Z,97571.38
2019-03-29T15:18:58.696Z,97567.53
2019-03-29T15:21:30.023Z,97561.59
2019-03-29T15:24:01.232Z,97563.01
2019-03-29T15:26:32.415Z,97565.41
2019-03-29T15:29:03.680Z,97563.64
2019-03-29T15:31:35.482Z,97562.55
2019-03-29T15:34:06.636Z,97558.42
2019-03-29T15:36:37.971Z,97560.70
2019-03-29T15:39:09.603Z,97560.60
2019-03-29T15:41:40.850Z,97550.14
2019-03-29T15:44:12.139Z,97555.95
2019-03-29T15:46:43.419Z,97551.03
2019-03-29T15:49:14.653Z,97548.92
2019-03-29T15:51:45.918Z,97549.92
2019-03-29T15:54:17.223Z,97544.88
2019-03-29T15:56:48.519Z,97547.64
2019-03-29T15:59:19.765Z,97551.17
2019-03-29T16:01:51.067Z,97542.70
2019-03-29T16:04:22.387Z,97543.81
2019-03-29T16:06:53.680Z,97537.34
2019-03-29T16:09:24.930Z,97542.99
2019-03-29T16:11:56.150Z,97551.10
2019-03-29T16:14:27.423Z,97548.39
2019-03-29T16:16:58.609Z,97549.89
2019-03-29T16:19:29.810Z,97545.68
2019-03-29T16:22:01.043Z,97546.42
2019-03-29T16:24:32.411Z,97545.72
2019-03-29T16:27:03.655Z,97544.40
2019-03-29T16:29:34.834Z,97535.48
2019-03-29T16:32:06.134Z,97536.59
2019-03-29T16:34:37.448Z,97529.88
2019-03-29T16:37:08.697Z,97530.70
2019-03-29T16:39:40.001Z,97529.12
2019-03-29T16:42:11.118Z,97532.43
2019-03-29T16:44:42.446Z,97526.98
2019-03-29T16:47:13.774Z,97527.12
2019-03-29T16:49:44.962Z,97528.30
2019-03-29T16:52:16.288Z,97529.06
2019-03-29T16:54:47.474Z,97535.19
2019-03-29T16:57:18.785Z,97522.60
2019-03-29T16:59:50.023Z,97529.77
2019-03-29T17:02:21.383Z,97526.58
2019-03-29T17:04:52.708Z,97531.05
2019-03-29T17:07:24.106Z,97532.08
2019-03-29T17:09:55.341Z,97533.23
2019-03-29T17:12:26.540Z,97527.70
2019-03-29T17:14:57.765Z,97528.62
2019-03-29T17:17:29.027Z,97528.80
2019-03-29T17:20:00.493Z,97526.88
2019-03-29T17:22:31.825Z,97532.52
2019-03-29T17:25:03.190Z,97527.41
2019-03-29T17:27:34.342Z,97531.63
2019-03-29T17:30:07.531Z,97524.72
2019-03-29T17:32:38.713Z,97526.91
2019-03-29T17:35:10.077Z,97534.40
2019-03-29T17:37:41.341Z,97530.20
2019-03-29T17:40:13.267Z,97528.62
2019-03-29T17:42:44.484Z,97532.44
2019-03-29T17:45:15.748Z,97537.38
2019-03-29T17:47:47.023Z,97536.61
2019-03-29T17:50:18.168Z,97545.52
2019-03-29T17:52:49.418Z,97546.70
2019-03-29T17:55:20.631Z,97545.23
2019-03-29T17:57:51.862Z,97546.71
2019-03-29T18:00:24.770Z,97549.38
2019-03-29T18:02:56.077Z,97549.59
2019-03-29T18:05:27.370Z,97546.97
2019-03-29T18:07:58.624Z,97548.46
2019-03-29T18:10:29.995Z,97550.62
2019-03-29T18:13:01.356Z,97550.62
2019-03-29T18:15:32.681Z,97555.84
2019-03-29T18:18:03.901Z,97548.66
2019-03-29T18:20:35.156Z,97556.02
2019-03-29T18:23:06.521Z,97553.57
2019-03-29T18:25:37.831Z,97548.97
2019-03-29T18:28:09.180Z,97560.13
2019-03-29T18:30:42.885Z,97561.78
2019-03-29T18:33:14.236Z,97556.20
2019-03-29T18:35:45.460Z,97559.13
2019-03-29T18:38:16.715Z,97562.59
2019-03-29T18:40:49.194Z,97556.16
2019-03-29T18:43:20.355Z,97559.97
2019-03-29T18:45:51.616Z,97558.78
2019-03-29T18:48:23.027Z,97562.70
2019-03-29T18:50:54.253Z,97557.43
2019-03-29T18:53:25.616Z,97554.74
2019-03-29T18:55:56.957Z,97557.33
2019-03-29T18:58:28.314Z,97563.20
2019-03-29T19:00:59.492Z,97548.44
2019-03-29T19:03:30.900Z,97553.98
2019-03-29T19:06:02.197Z,97548.69
2019-03-29T19:08:33.449Z,97553.23
2019-03-29T19:11:05.034Z,97550.55
2019-03-29T19:13:36.416Z,97553.66
2019-03-29T19:16:07.571Z,97551.21
2019-03-29T19:18:38.869Z,97553.50
2019-03-29T19:21:10.187Z,97555.09
2019-03-29T19:23:41.508Z,97555.88
2019-03-29T19:26:12.704Z,97552.88
2019-03-29T19:28:43.976Z,97557.92
2019-03-29T19:31:15.316Z,97557.16
2019-03-29T19:33:46.572Z,97556.13
2019-03-29T19:36:17.873Z,97551.14
2019-03-29T19:38:49.198Z,97553.83
2019-03-29T19:41:20.448Z,97546.80
2019-03-29T19:43:51.741Z,97550.90
2019-03-29T19:46:22.991Z,97547.23
2019-03-29T19:48:54.377Z,97546.88
2019-03-29T19:51:25.528Z,97548.96
2019-03-29T19:54:07.247Z,97540.96
2019-03-29T19:56:29.919Z,97556.28
2019-03-29T19:59:01.127Z,97546.52
2019-03-29T20:01:32.626Z,97545.34
2019-03-29T20:04:03.934Z,97548.75
2019-03-29T20:06:35.227Z,97550.60
2019-03-29T20:09:09.053Z,97552.50
2019-03-29T20:11:40.167Z,97553.44
2019-03-29T20:14:11.374Z,97551.61
2019-03-29T20:16:42.568Z,97544.34
2019-03-29T20:19:13.897Z,97543.36
2019-03-29T20:21:45.236Z,97547.07
2019-03-29T20:24:16.483Z,97552.55
2019-03-29T20:26:47.792Z,97551.03
2019-03-29T20:29:18.987Z,97555.56
2019-03-29T20:31:50.833Z,97551.87
2019-03-29T20:34:23.171Z,97546.55
2019-03-29T20:36:54.436Z,97547.58
2019-03-29T20:39:25.907Z,97543.75
2019-03-29T20:41:57.031Z,97551.10
2019-03-29T20:44:28.204Z,97546.14
2019-03-29T20:46:59.527Z,97542.14
2019-03-29T20:49:30.744Z,97544.77
2019-03-29T20:52:02.061Z,97541.34
2019-03-29T20:54:33.331Z,97539.00
2019-03-29T20:57:04.597Z,97539.40
2019-03-29T20:59:35.791Z,97535.02
2019-03-29T21:02:08.761Z,97535.27
2019-03-29T21:04:40.046Z,97533.83
2019-03-29T21:07:11.307Z,97524.77
2019-03-29T21:09:42.561Z,97531.98
2019-03-29T21:12:13.908Z,97530.23
2019-03-29T21:14:45.165Z,97528.52
2019-03-29T21:17:16.456Z,97531.19
2019-03-29T21:19:47.751Z,97525.48
2019-03-29T21:22:18.960Z,97528.87
2019-03-29T21:24:50.221Z,97527.63
2019-03-29T21:27:21.570Z,97524.05
2019-03-29T21:29:52.927Z,97516.23
2019-03-29T21:32:24.215Z,97524.53
2019-03-29T21:34:55.378Z,97520.59
2019-03-29T21:37:26.565Z,97519.56
2019-03-29T21:39:57.868Z,97514.56
2019-03-29T21:42:29.119Z,97515.93
2019-03-29T21:45:00.344Z,97507.35
2019-03-29T21:47:31.610Z,97510.94
2019-03-29T21:50:02.904Z,97505.02
2019-03-29T21:52:34.227Z,97501.40
2019-03-29T21:55:06.528Z,97503.59
2019-03-29T21:57:37.785Z,97504.27
2019-03-29T22:00:11.038Z,97508.66
2019-03-29T22:02:42.194Z,97506.39
2019-03-29T22:05:13.585Z,97504.20
2019-03-29T22:07:44.947Z,97500.28
2019-03-29T22:10:16.362Z,97499.97
2019-03-29T22:12:47.606Z,97498.98
2019-03-29T22:15:18.908Z,97494.51
2019-03-29T22:17:50.169Z,97496.70
2019-03-29T22:20:21.279Z,97496.58
2019-03-29T22:22:52.594Z,97488.77
2019-03-29T22:25:23.877Z,97484.06
2019-03-29T22:27:55.091Z,97484.81
2019-03-29T22:30:26.386Z,97478.30
2019-03-29T22:32:57.847Z,97475.60
2019-03-29T22:35:29.050Z,97470.80
2019-03-29T22:38:00.363Z,97468.26
2019-03-29T22:40:31.560Z,97471.77
2019-03-29T22:43:02.854Z,97458.98
2019-03-29T22:45:34.058Z,97464.97
2019-03-29T22:48:05.350Z,97461.29
2019-03-29T22:50:36.523Z,97461.64
2019-03-29T22:53:07.774Z,97458.34
2019-03-29T22:55:38.940Z,97457.22
2019-03-29T22:58:10.093Z,97461.67
2019-03-29T23:00:46.472Z,97447.48
2019-03-29T23:03:18.280Z,97450.09
2019-03-29T23:05:49.500Z,97446.75
2019-03-29T23:08:20.716Z,97443.38
2019-03-29T23:10:51.960Z,97447.08
2019-03-29T23:13:23.037Z,97449.23
2019-03-29T23:15:54.306Z,97442.08
2019-03-29T23:18:25.601Z,97432.54
2019-03-29T23:20:56.851Z,97431.48
2019-03-29T23:23:28.064Z,97435.39
2019-03-29T23:25:59.386Z,97432.78
2019-03-29T23:28:30.631Z,97433.22
2019-03-29T23:31:05.395Z,97432.10
2019-03-29T23:33:34.918Z,97427.60
2019-03-29T23:36:06.134Z,97428.91
2019-03-29T23:38:37.403Z,97424.65
2019-03-29T23:41:08.616Z,97427.84
2019-03-29T23:43:39.843Z,97422.75
2019-03-29T23:46:11.061Z,97426.38
2019-03-29T23:48:42.360Z,97425.48
2019-03-29T23:51:13.476Z,97429.48
2019-03-29T23:53:44.709Z,97427.86
2019-03-29T23:56:16.085Z,97427.08
2019-03-29T23:58:47.247Z,97427.59
